Time,TemperatureF,DewpointF,PressureIn,WindDirection,WindDirectionDegrees,WindSpeedMPH,WindSpeedGustMPH,Humidity,HourlyPrecipIn,Conditions,Clouds,dailyrainin,SoftwareType,DateUTC
2013-07-04 00:00:00,63.9,46.9,29.82,NW,312,0.0,1.0,54,0.00,,,0.00,WeatherCatV1.14B232,2013-07-04 06:00:00,
2013-07-04 00:05:00,63.7,47.7,29.82,NW,311,0.0,0.0,56,0.00,,,0.00,WeatherCatV1.14B232,2013-07-04 06:05:00,
2013-07-04 00:10:00,63.2,48.2,29.82,NW,311,0.0,0.0,58,0.00,,,0.00,WeatherCatV1.14B232,2013-07-04 06:10:00,
2013-07-04 00:15:00,62.4,48.8,29.81,WSW,239,0.0,0.0,61,0.00,,,0.00,WeatherCatV1.14B232,2013-07-04 06:15:00,
2013-07-04 00:20:00,61.7,48.1,29.82,WSW,239,0.0,0.0,61,0.00,,,0.00,WeatherCatV1.14B232,2013-07-04 06:20:00,
2013-07-04 00:25:00,61.2,48.9,29.81,WSW,240,0.0,0.0,64,0.00,,,0.00,WeatherCatV1.14B232,2013-07-04 06:25:00,
2013-07-04 00:30:00,60.7,48.0,29.82,SW,235,0.0,1.0,63,0.00,,,0.00,WeatherCatV1.14B232,2013-07-04 06:30:00,
2013-07-04 00:35:00,60.4,48.2,29.81,SW,235,0.0,0.0,64,0.00,,,0.00,WeatherCatV1.14B232,2013-07-04 06:35:00,
2013-07-04 00:40:00,60.1,48.3,29.82,SW,235,0.0,0.0,65,0.00,,,0.00,WeatherCatV1.14B232,2013-07-04 06:40:00,
2013-07-04 00:45:00,59.9,48.5,29.81,SW,235,0.0,0.0,66,0.00,,,0.00,WeatherCatV1.14B232,2013-07-04 06:45:00,
2013-07-04 00:50:00,59.6,49.0,29.81,SW,235,0.0,0.0,68,0.00,,,0.00,WeatherCatV1.14B232,2013-07-04 06:50:00,
2013-07-04 00:55:00,59.2,48.2,29.81,SW,235,0.0,0.0,67,0.00,,,0.00,WeatherCatV1.14B232,2013-07-04 06:55:00,
2013-07-04 01:00:00,59.0,48.8,29.82,SW,235,0.0,0.0,69,0.00,,,0.00,WeatherCatV1.14B232,2013-07-04 07:00:00,
2013-07-04 01:05:00,58.7,48.6,29.81,SSW,199,1.0,1.0,69,0.00,,,0.00,WeatherCatV1.14B232,2013-07-04 07:05:00,
2013-07-04 01:10:00,58.5,48.7,29.81,SW,217,0.0,0.0,70,0.00,,,0.00,WeatherCatV1.14B232,2013-07-04 07:10:00,
2013-07-04 01:15:00,58.4,48.7,29.81,SW,217,0.0,0.0,70,0.00,,,0.00,WeatherCatV1.14B232,2013-07-04 07:15:00,
2013-07-04 01:20:00,58.3,48.6,29.81,SW,217,0.0,0.0,70,0.00,,,0.00,WeatherCatV1.14B232,2013-07-04 07:20:00,
2013-07-04 01:25:00,58.1,48.7,29.81,SW,217,0.0,0.0,71,0.00,,,0.00,WeatherCatV1.14B232,2013-07-04 07:25:00,
2013-07-04 01:30:00,57.8,48.8,29.81,SW,217,1.0,1.0,72,0.00,,,0.00,WeatherCatV1.14B232,2013-07-04 07:30:00,
2013-07-04 01:35:00,57.4,49.2,29.81,SW,229,0.0,1.0,74,0.00,,,0.00,WeatherCatV1.14B232,2013-07-04 07:35:00,
2013-07-04 01:40:00,57.2,47.5,29.81,South,169,1.0,1.0,70,0.00,,,0.00,WeatherCatV1.14B232,2013-07-04 07:40:00,
2013-07-04 01:45:00,57.5,47.8,29.81,SSE,165,0.0,0.0,70,0.00,,,0.00,WeatherCatV1.14B232,2013-07-04 07:45:00,
2013-07-04 01:50:00,57.5,48.2,29.81,SSE,165,0.0,0.0,71,0.00,,,0.00,WeatherCatV1.14B232,2013-07-04 07:50:00,
2013-07-04 01:55:00,57.5,46.6,29.81,NW,312,2.0,2.0,67,0.00,,,0.00,WeatherCatV1.14B232,2013-07-04 07:55:00,
2013-07-04 02:00:00,58.0,46.3,29.81,NW,307,0.0,0.0,65,0.00,,,0.00,WeatherCatV1.14B232,2013-07-04 08:00:00,
2013-07-04 02:05:00,58.0,46.3,29.81,NW,308,0.0,0.0,65,0.00,,,0.00,WeatherCatV1.14B232,2013-07-04 08:05:00,
2013-07-04 02:10:00,57.9,46.6,29.81,NW,308,0.0,0.0,66,0.00,,,0.00,WeatherCatV1.14B232,2013-07-04 08:10:00,
2013-07-04 02:15:00,57.8,47.3,29.80,NW,308,0.0,0.0,68,0.00,,,0.00,WeatherCatV1.14B232,2013-07-04 08:15:00,
2013-07-04 02:20:00,57.5,47.8,29.80,SSE,160,0.0,1.0,70,0.00,,,0.00,WeatherCatV1.14B232,2013-07-04 08:20:00,
2013-07-04 02:25:00,57.3,48.3,29.80,SSE,165,0.0,0.0,72,0.00,,,0.00,WeatherCatV1.14B232,2013-07-04 08:25:00,
2013-07-04 02:30:00,56.9,48.0,29.80,South,177,0.0,1.0,72,0.00,,,0.00,WeatherCatV1.14B232,2013-07-04 08:30:00,
2013-07-04 02:35:00,56.6,48.0,29.80,SSE,147,0.0,0.0,73,0.00,,,0.00,WeatherCatV1.14B232,2013-07-04 08:35:00,
2013-07-04 02:40:00,56.6,48.0,29.79,ESE,118,0.0,1.0,73,0.00,,,0.00,WeatherCatV1.14B232,2013-07-04 08:40:00,
2013-07-04 02:45:00,56.3,47.8,29.79,South,190,0.0,1.0,73,0.00,,,0.00,WeatherCatV1.14B232,2013-07-04 08:45:00,
2013-07-04 02:50:00,56.1,47.6,29.79,South,187,0.0,1.0,73,0.00,,,0.00,WeatherCatV1.14B232,2013-07-04 08:50:00,
2013-07-04 02:55:00,56.0,48.2,29.79,South,187,0.0,0.0,75,0.00,,,0.00,WeatherCatV1.14B232,2013-07-04 08:55:00,
2013-07-04 03:00:00,55.9,47.7,29.79,South,187,0.0,0.0,74,0.00,,,0.00,WeatherCatV1.14B232,2013-07-04 09:00:00,
2013-07-04 03:05:00,55.8,48.0,29.79,South,188,0.0,0.0,75,0.00,,,0.00,WeatherCatV1.14B232,2013-07-04 09:05:00,
2013-07-04 03:10:00,55.6,48.5,29.79,South,187,0.0,0.0,77,0.00,,,0.00,WeatherCatV1.14B232,2013-07-04 09:10:00,
2013-07-04 03:15:00,55.4,48.0,29.79,South,187,0.0,0.0,76,0.00,,,0.00,WeatherCatV1.14B232,2013-07-04 09:15:00,
2013-07-04 03:20:00,55.2,47.8,29.78,South,187,0.0,0.0,76,0.00,,,0.00,WeatherCatV1.14B232,2013-07-04 09:20:00,
2013-07-04 03:25:00,55.1,48.7,29.78,South,190,0.0,0.0,79,0.00,,,0.00,WeatherCatV1.14B232,2013-07-04 09:25:00,
2013-07-04 03:30:00,54.9,47.5,29.79,South,190,0.0,0.0,76,0.00,,,0.00,WeatherCatV1.14B232,2013-07-04 09:30:00,
2013-07-04 03:35:00,54.6,46.5,29.78,South,190,0.0,0.0,74,0.00,,,0.00,WeatherCatV1.14B232,2013-07-04 09:35:00,
2013-07-04 03:40:00,54.4,46.3,29.79,NNW,338,0.0,1.0,74,0.00,,,0.00,WeatherCatV1.14B232,2013-07-04 09:40:00,
2013-07-04 03:45:00,54.8,46.3,29.78,NNW,335,0.0,0.0,73,0.00,,,0.00,WeatherCatV1.14B232,2013-07-04 09:45:00,
2013-07-04 03:50:00,54.9,47.8,29.78,NNW,338,0.0,1.0,77,0.00,,,0.00,WeatherCatV1.14B232,2013-07-04 09:50:00,
2013-07-04 03:55:00,54.9,47.5,29.78,North,11,0.0,0.0,76,0.00,,,0.00,WeatherCatV1.14B232,2013-07-04 09:55:00,
2013-07-04 04:00:00,55.0,47.9,29.78,SSE,152,0.0,0.0,77,0.00,,,0.00,WeatherCatV1.14B232,2013-07-04 10:00:00,
2013-07-04 04:05:00,54.8,47.4,29.79,SSE,155,1.0,2.0,76,0.00,,,0.00,WeatherCatV1.14B232,2013-07-04 10:05:00,
2013-07-04 04:10:00,54.4,47.0,29.78,South,191,1.0,1.0,76,0.00,,,0.00,WeatherCatV1.14B232,2013-07-04 10:10:00,
2013-07-04 04:15:00,54.3,46.9,29.79,South,172,0.0,0.0,76,0.00,,,0.00,WeatherCatV1.14B232,2013-07-04 10:15:00,
2013-07-04 04:20:00,54.2,46.8,29.78,South,169,0.0,1.0,76,0.00,,,0.00,WeatherCatV1.14B232,2013-07-04 10:20:00,
2013-07-04 04:25:00,54.1,47.0,29.79,South,169,0.0,0.0,77,0.00,,,0.00,WeatherCatV1.14B232,2013-07-04 10:25:00,
2013-07-04 04:30:00,53.8,46.8,29.79,South,169,0.0,0.0,77,0.00,,,0.00,WeatherCatV1.14B232,2013-07-04 10:30:00,
2013-07-04 04:35:00,53.4,47.1,29.79,South,170,0.0,0.0,79,0.00,,,0.00,WeatherCatV1.14B232,2013-07-04 10:35:00,
2013-07-04 04:40:00,53.0,46.7,29.79,South,171,0.0,0.0,79,0.00,,,0.00,WeatherCatV1.14B232,2013-07-04 10:40:00,
2013-07-04 04:45:00,52.7,46.4,29.79,SSE,159,0.0,0.0,79,0.00,,,0.00,WeatherCatV1.14B232,2013-07-04 10:45:00,
2013-07-04 04:50:00,52.4,46.4,29.79,SSE,159,0.0,0.0,80,0.00,,,0.00,WeatherCatV1.14B232,2013-07-04 10:50:00,
2013-07-04 04:55:00,52.0,46.4,29.79,SSE,159,0.0,0.0,81,0.00,,,0.00,WeatherCatV1.14B232,2013-07-04 10:55:00,
2013-07-04 05:00:00,51.7,46.1,29.79,SSE,162,0.0,1.0,81,0.00,,,0.00,WeatherCatV1.14B232,2013-07-04 11:00:00,
2013-07-04 05:05:00,51.5,45.9,29.80,SSE,162,0.0,0.0,81,0.00,,,0.00,WeatherCatV1.14B232,2013-07-04 11:05:00,
2013-07-04 05:10:00,51.4,45.8,29.80,SSE,160,0.0,1.0,81,0.00,,,0.00,WeatherCatV1.14B232,2013-07-04 11:10:00,
2013-07-04 05:15:00,51.2,45.6,29.80,SSE,160,0.0,0.0,81,0.00,,,0.00,WeatherCatV1.14B232,2013-07-04 11:15:00,
2013-07-04 05:20:00,50.9,45.9,29.80,SSE,164,1.0,2.0,83,0.00,,,0.00,WeatherCatV1.14B232,2013-07-04 11:20:00,
2013-07-04 05:25:00,50.6,45.9,29.80,SSE,162,1.0,1.0,84,0.00,,,0.00,WeatherCatV1.14B232,2013-07-04 11:25:00,
2013-07-04 05:30:00,50.4,45.4,29.80,SSE,165,1.0,1.0,83,0.00,,,0.00,WeatherCatV1.14B232,2013-07-04 11:30:00,
2013-07-04 05:35:00,50.4,44.8,29.81,SSE,160,1.0,1.0,81,0.00,,,0.00,WeatherCatV1.14B232,2013-07-04 11:35:00,
2013-07-04 05:40:00,50.5,44.6,29.81,SSE,160,0.0,0.0,80,0.00,,,0.00,WeatherCatV1.14B232,2013-07-04 11:40:00,
2013-07-04 05:45:00,50.4,44.1,29.80,SSE,160,0.0,0.0,79,0.00,,,0.00,WeatherCatV1.14B232,2013-07-04 11:45:00,
2013-07-04 05:50:00,50.1,44.8,29.80,SSE,161,0.0,0.0,82,0.00,,,0.00,WeatherCatV1.14B232,2013-07-04 11:50:00,
2013-07-04 05:55:00,49.7,44.4,29.81,SSE,160,0.0,0.0,82,0.00,,,0.00,WeatherCatV1.14B232,2013-07-04 11:55:00,
2013-07-04 06:00:00,49.5,44.6,29.81,SSE,161,0.0,0.0,83,0.00,,,0.00,WeatherCatV1.14B232,2013-07-04 12:00:00,
2013-07-04 06:05:00,49.3,44.0,29.81,SSE,160,0.0,0.0,82,0.00,,,0.00,WeatherCatV1.14B232,2013-07-04 12:05:00,
2013-07-04 06:10:00,49.2,44.6,29.81,SSE,161,0.0,0.0,84,0.00,,,0.00,WeatherCatV1.14B232,2013-07-04 12:10:00,
2013-07-04 06:15:00,49.0,44.4,29.81,SSE,161,0.0,0.0,84,0.00,,,0.00,WeatherCatV1.14B232,2013-07-04 12:15:00,
2013-07-04 06:20:00,48.9,44.9,29.81,SSE,160,0.0,0.0,86,0.00,,,0.00,WeatherCatV1.14B232,2013-07-04 12:20:00,
2013-07-04 06:25:00,48.8,44.5,29.81,SSE,161,0.0,0.0,85,0.00,,,0.00,WeatherCatV1.14B232,2013-07-04 12:25:00,
2013-07-04 06:30:00,49.0,45.0,29.81,SSE,160,0.0,0.0,86,0.00,,,0.00,WeatherCatV1.14B232,2013-07-04 12:30:00,
2013-07-04 06:35:00,49.4,44.8,29.82,SSE,159,0.0,0.0,84,0.00,,,0.00,WeatherCatV1.14B232,2013-07-04 12:35:00,
2013-07-04 06:40:00,50.1,45.1,29.82,SSE,159,0.0,0.0,83,0.00,,,0.00,WeatherCatV1.14B232,2013-07-04 12:40:00,
2013-07-04 06:45:00,51.3,45.0,29.82,SSE,159,0.0,0.0,79,0.00,,,0.00,WeatherCatV1.14B232,2013-07-04 12:45:00,
2013-07-04 06:50:00,52.6,45.6,29.82,SSE,159,0.0,0.0,77,0.00,,,0.00,WeatherCatV1.14B232,2013-07-04 12:50:00,
2013-07-04 06:55:00,53.8,45.7,29.82,SSE,159,0.0,0.0,74,0.00,,,0.00,WeatherCatV1.14B232,2013-07-04 12:55:00,
2013-07-04 07:00:00,54.9,46.0,29.82,ESE,115,0.0,1.0,72,0.00,,,0.00,WeatherCatV1.14B232,2013-07-04 13:00:00,
2013-07-04 07:05:00,55.5,46.2,29.82,East,98,0.0,1.0,71,0.00,,,0.00,WeatherCatV1.14B232,2013-07-04 13:05:00,
2013-07-04 07:10:00,56.3,46.6,29.82,South,174,2.0,2.0,70,0.00,,,0.00,WeatherCatV1.14B232,2013-07-04 13:10:00,
2013-07-04 07:15:00,56.3,45.9,29.82,SE,134,0.0,1.0,68,0.00,,,0.00,WeatherCatV1.14B232,2013-07-04 13:15:00,
2013-07-04 07:20:00,56.9,46.4,29.82,SSE,159,0.0,0.0,68,0.00,,,0.00,WeatherCatV1.14B232,2013-07-04 13:20:00,
2013-07-04 07:25:00,57.9,46.6,29.82,East,101,0.0,1.0,66,0.00,,,0.00,WeatherCatV1.14B232,2013-07-04 13:25:00,
2013-07-04 07:30:00,58.4,46.3,29.82,East,101,0.0,2.0,64,0.00,,,0.00,WeatherCatV1.14B232,2013-07-04 13:30:00,
2013-07-04 07:35:00,58.8,46.2,29.82,ENE,63,0.0,0.0,63,0.00,,,0.00,WeatherCatV1.14B232,2013-07-04 13:35:00,
2013-07-04 07:40:00,59.3,46.3,29.82,SW,228,1.0,1.0,62,0.00,,,0.00,WeatherCatV1.14B232,2013-07-04 13:40:00,
2013-07-04 07:45:00,58.7,45.7,29.82,WSW,240,0.0,0.0,62,0.00,,,0.00,WeatherCatV1.14B232,2013-07-04 13:45:00,
2013-07-04 07:50:00,59.2,46.2,29.82,WSW,242,0.0,0.0,62,0.00,,,0.00,WeatherCatV1.14B232,2013-07-04 13:50:00,
2013-07-04 07:55:00,60.4,46.0,29.82,NE,34,0.0,0.0,59,0.00,,,0.00,WeatherCatV1.14B232,2013-07-04 13:55:00,
2013-07-04 08:00:00,61.6,47.1,29.81,NE,40,0.0,1.0,59,0.00,,,0.00,WeatherCatV1.14B232,2013-07-04 14:00:00,
2013-07-04 08:05:00,62.0,46.6,29.82,NE,46,0.0,1.0,57,0.00,,,0.00,WeatherCatV1.14B232,2013-07-04 14:05:00,
2013-07-04 08:10:00,62.2,46.3,29.82,NNE,26,0.0,1.0,56,0.00,,,0.00,WeatherCatV1.14B232,2013-07-04 14:10:00,
2013-07-04 08:15:00,63.0,46.6,29.81,ESE,103,0.0,0.0,55,0.00,,,0.00,WeatherCatV1.14B232,2013-07-04 14:15:00,
2013-07-04 08:20:00,63.3,46.4,29.81,NNE,27,0.0,2.0,54,0.00,,,0.00,WeatherCatV1.14B232,2013-07-04 14:20:00,
2013-07-04 08:25:00,63.0,46.1,29.81,NNW,345,0.0,2.0,54,0.00,,,0.00,WeatherCatV1.14B232,2013-07-04 14:25:00,
2013-07-04 08:30:00,63.9,47.9,29.81,NNE,27,0.0,0.0,56,0.00,,,0.00,WeatherCatV1.14B232,2013-07-04 14:30:00,
2013-07-04 08:35:00,64.3,47.3,29.81,NNE,33,1.0,1.0,54,0.00,,,0.00,WeatherCatV1.14B232,2013-07-04 14:35:00,
2013-07-04 08:40:00,64.0,46.5,29.81,NNW,347,0.0,1.0,53,0.00,,,0.00,WeatherCatV1.14B232,2013-07-04 14:40:00,
2013-07-04 08:45:00,64.6,47.1,29.81,ENE,57,0.0,1.0,53,0.00,,,0.00,WeatherCatV1.14B232,2013-07-04 14:45:00,
2013-07-04 08:50:00,65.5,46.9,29.81,East,86,1.0,2.0,51,0.00,,,0.00,WeatherCatV1.14B232,2013-07-04 14:50:00,
2013-07-04 08:55:00,65.7,46.5,29.81,NNE,25,0.0,1.0,50,0.00,,,0.00,WeatherCatV1.14B232,2013-07-04 14:55:00,
2013-07-04 09:00:00,66.1,48.0,29.81,North,8,0.0,1.0,52,0.00,,,0.00,WeatherCatV1.14B232,2013-07-04 15:00:00,
2013-07-04 09:05:00,66.9,47.6,29.80,East,82,0.0,1.0,50,0.00,,,0.00,WeatherCatV1.14B232,2013-07-04 15:05:00,
2013-07-04 09:10:00,67.6,46.6,29.80,South,188,1.0,2.0,47,0.00,,,0.00,WeatherCatV1.14B232,2013-07-04 15:10:00,
2013-07-04 09:15:00,68.6,47.0,29.80,SSE,149,0.0,1.0,46,0.00,,,0.00,WeatherCatV1.14B232,2013-07-04 15:15:00,
2013-07-04 09:20:00,69.9,48.7,29.80,SSE,161,1.0,1.0,47,0.00,,,0.00,WeatherCatV1.14B232,2013-07-04 15:20:00,
2013-07-04 09:25:00,70.1,46.6,29.79,SE,131,0.0,2.0,43,0.00,,,0.00,WeatherCatV1.14B232,2013-07-04 15:25:00,
2013-07-04 09:30:00,70.4,47.4,29.79,SW,224,2.0,2.0,44,0.00,,,0.00,WeatherCatV1.14B232,2013-07-04 15:30:00,
2013-07-04 09:35:00,70.8,45.9,29.79,SE,132,0.0,1.0,41,0.00,,,0.00,WeatherCatV1.14B232,2013-07-04 15:35:00,
2013-07-04 09:40:00,71.2,46.9,29.78,South,184,0.0,1.0,42,0.00,,,0.00,WeatherCatV1.14B232,2013-07-04 15:40:00,
2013-07-04 09:45:00,72.0,46.3,29.78,East,79,0.0,1.0,40,0.00,,,0.00,WeatherCatV1.14B232,2013-07-04 15:45:00,
2013-07-04 09:50:00,72.7,44.9,29.78,NE,45,0.0,1.0,37,0.00,,,0.00,WeatherCatV1.14B232,2013-07-04 15:50:00,
2013-07-04 09:55:00,72.8,44.3,29.78,NE,51,0.0,1.0,36,0.00,,,0.00,WeatherCatV1.14B232,2013-07-04 15:55:00,
2013-07-04 10:00:00,73.3,45.4,29.77,NE,40,0.0,1.0,37,0.00,,,0.00,WeatherCatV1.14B232,2013-07-04 16:00:00,
2013-07-04 10:05:00,73.8,46.6,29.77,East,92,0.0,1.0,38,0.00,,,0.00,WeatherCatV1.14B232,2013-07-04 16:05:00,
2013-07-04 10:10:00,74.2,46.9,29.77,SW,226,1.0,2.0,38,0.00,,,0.00,WeatherCatV1.14B232,2013-07-04 16:10:00,
2013-07-04 10:15:00,73.4,46.2,29.77,West,262,1.0,2.0,38,0.00,,,0.00,WeatherCatV1.14B232,2013-07-04 16:15:00,
2013-07-04 10:20:00,73.1,46.7,29.76,West,271,0.0,0.0,39,0.00,,,0.00,WeatherCatV1.14B232,2013-07-04 16:20:00,
2013-07-04 10:25:00,73.7,47.2,29.76,WSW,246,0.0,1.0,39,0.00,,,0.00,WeatherCatV1.14B232,2013-07-04 16:25:00,
2013-07-04 10:30:00,74.5,46.5,29.76,SW,226,1.0,2.0,37,0.00,,,0.00,WeatherCatV1.14B232,2013-07-04 16:30:00,
2013-07-04 10:35:00,74.4,47.8,29.75,South,169,3.0,4.0,39,0.00,,,0.00,WeatherCatV1.14B232,2013-07-04 16:35:00,
2013-07-04 10:40:00,74.5,45.8,29.75,SE,138,0.0,2.0,36,0.00,,,0.00,WeatherCatV1.14B232,2013-07-04 16:40:00,
2013-07-04 10:45:00,75.5,46.7,29.75,North,355,2.0,2.0,36,0.00,,,0.00,WeatherCatV1.14B232,2013-07-04 16:45:00,
2013-07-04 10:50:00,75.9,47.0,29.75,South,190,2.0,3.0,36,0.00,,,0.00,WeatherCatV1.14B232,2013-07-04 16:50:00,
2013-07-04 10:56:00,76.2,49.4,29.75,WSW,252,2.0,2.0,39,0.00,,,0.00,WeatherCatV1.14B232,2013-07-04 16:56:00,
2013-07-04 11:01:00,76.4,47.5,29.74,SW,232,1.0,2.0,36,0.00,,,0.00,WeatherCatV1.14B232,2013-07-04 17:01:00,
2013-07-04 11:06:00,76.5,47.5,29.73,SE,124,0.0,3.0,36,0.00,,,0.00,WeatherCatV1.14B232,2013-07-04 17:06:00,
2013-07-04 11:11:00,76.9,46.4,29.73,West,273,0.0,1.0,34,0.00,,,0.00,WeatherCatV1.14B232,2013-07-04 17:11:00,
2013-07-04 11:16:00,77.4,48.3,29.73,WSW,249,1.0,2.0,36,0.00,,,0.00,WeatherCatV1.14B232,2013-07-04 17:16:00,
2013-07-04 11:21:00,77.6,46.2,29.73,WSW,239,1.0,1.0,33,0.00,,,0.00,WeatherCatV1.14B232,2013-07-04 17:21:00,
2013-07-04 11:26:00,77.5,48.4,29.72,West,272,0.0,0.0,36,0.00,,,0.00,WeatherCatV1.14B232,2013-07-04 17:26:00,
2013-07-04 11:31:00,78.2,48.3,29.72,SSE,148,0.0,0.0,35,0.00,,,0.00,WeatherCatV1.14B232,2013-07-04 17:31:00,
2013-07-04 11:36:00,78.9,46.5,29.72,West,260,0.0,2.0,32,0.00,,,0.00,WeatherCatV1.14B232,2013-07-04 17:36:00,
2013-07-04 11:41:00,79.1,45.8,29.72,WNW,293,0.0,1.0,31,0.00,,,0.00,WeatherCatV1.14B232,2013-07-04 17:41:00,
2013-07-04 11:46:00,79.7,45.5,29.71,NE,44,1.0,1.0,30,0.00,,,0.00,WeatherCatV1.14B232,2013-07-04 17:46:00,
2013-07-04 11:51:00,81.0,44.8,29.71,SW,226,1.0,2.0,28,0.00,,,0.00,WeatherCatV1.14B232,2013-07-04 17:51:00,
2013-07-04 11:56:00,81.7,48.1,29.70,NE,46,1.0,1.0,31,0.00,,,0.00,WeatherCatV1.14B232,2013-07-04 17:56:00,
2013-07-04 12:01:00,81.2,45.0,29.70,NW,313,0.0,2.0,28,0.00,,,0.00,WeatherCatV1.14B232,2013-07-04 18:01:00,
2013-07-04 12:06:00,82.4,46.9,29.69,NE,53,0.0,0.0,29,0.00,,,0.00,WeatherCatV1.14B232,2013-07-04 18:06:00,
2013-07-04 12:11:00,83.2,44.7,29.69,ESE,105,0.0,1.0,26,0.00,,,0.00,WeatherCatV1.14B232,2013-07-04 18:11:00,
2013-07-04 12:16:00,84.5,44.8,29.69,West,262,2.0,3.0,25,0.00,,,0.00,WeatherCatV1.14B232,2013-07-04 18:16:00,
2013-07-04 12:21:00,84.1,43.4,29.69,ENE,63,0.0,3.0,24,0.00,,,0.00,WeatherCatV1.14B232,2013-07-04 18:21:00,
2013-07-04 12:26:00,84.5,45.8,29.69,SSE,156,1.0,2.0,26,0.00,,,0.00,WeatherCatV1.14B232,2013-07-04 18:26:00,
2013-07-04 12:31:00,84.7,47.0,29.68,SW,221,0.0,2.0,27,0.00,,,0.00,WeatherCatV1.14B232,2013-07-04 18:31:00,
2013-07-04 12:36:00,85.0,48.2,29.68,SW,218,1.0,1.0,28,0.00,,,0.00,WeatherCatV1.14B232,2013-07-04 18:36:00,
2013-07-04 12:41:00,85.7,47.8,29.68,NNW,342,0.0,0.0,27,0.00,,,0.00,WeatherCatV1.14B232,2013-07-04 18:41:00,
2013-07-04 12:46:00,86.2,45.1,29.68,WNW,290,1.0,1.0,24,0.00,,,0.00,WeatherCatV1.14B232,2013-07-04 18:46:00,
2013-07-04 12:51:00,85.8,47.9,29.68,NW,305,0.0,1.0,27,0.00,,,0.00,WeatherCatV1.14B232,2013-07-04 18:51:00,
2013-07-04 12:56:00,86.6,45.5,29.68,SSE,163,1.0,3.0,24,0.00,,,0.00,WeatherCatV1.14B232,2013-07-04 18:56:00,
2013-07-04 13:01:00,87.0,45.8,29.67,SW,223,2.0,3.0,24,0.00,,,0.00,WeatherCatV1.14B232,2013-07-04 19:01:00,
2013-07-04 13:06:00,86.4,41.8,29.67,WSW,256,0.0,2.0,21,0.00,,,0.00,WeatherCatV1.14B232,2013-07-04 19:06:00,
2013-07-04 13:11:00,86.7,42.1,29.67,WSW,249,0.0,2.0,21,0.00,,,0.00,WeatherCatV1.14B232,2013-07-04 19:11:00,
2013-07-04 13:16:00,87.8,43.0,29.67,WSW,255,2.0,3.0,21,0.00,,,0.00,WeatherCatV1.14B232,2013-07-04 19:16:00,
2013-07-04 13:21:00,87.9,40.5,29.66,West,263,0.0,3.0,19,0.00,,,0.00,WeatherCatV1.14B232,2013-07-04 19:21:00,
2013-07-04 13:26:00,88.4,40.9,29.66,East,94,3.0,3.0,19,0.00,,,0.00,WeatherCatV1.14B232,2013-07-04 19:26:00,
2013-07-04 13:31:00,87.4,41.4,29.66,South,169,2.0,2.0,20,0.00,,,0.00,WeatherCatV1.14B232,2013-07-04 19:31:00,
2013-07-04 13:36:00,87.4,41.4,29.66,WNW,290,0.0,1.0,20,0.00,,,0.00,WeatherCatV1.14B232,2013-07-04 19:36:00,
2013-07-04 13:41:00,87.3,40.0,29.66,WSW,246,2.0,2.0,19,0.00,,,0.00,WeatherCatV1.14B232,2013-07-04 19:41:00,
2013-07-04 13:46:00,87.0,42.3,29.65,WSW,253,0.0,1.0,21,0.00,,,0.00,WeatherCatV1.14B232,2013-07-04 19:46:00,
2013-07-04 13:51:00,87.0,41.0,29.65,WSW,246,1.0,2.0,20,0.00,,,0.00,WeatherCatV1.14B232,2013-07-04 19:51:00,
2013-07-04 13:56:00,86.8,42.1,29.65,SSW,201,0.0,0.0,21,0.00,,,0.00,WeatherCatV1.14B232,2013-07-04 19:56:00,
2013-07-04 14:01:00,87.3,41.3,29.65,WSW,239,1.0,1.0,20,0.00,,,0.00,WeatherCatV1.14B232,2013-07-04 20:01:00,
2013-07-04 14:06:00,86.4,40.6,29.65,NW,315,0.0,1.0,20,0.00,,,0.00,WeatherCatV1.14B232,2013-07-04 20:06:00,
2013-07-04 14:11:00,86.5,40.6,29.65,ESE,122,1.0,2.0,20,0.00,,,0.00,WeatherCatV1.14B232,2013-07-04 20:11:00,
2013-07-04 14:16:00,86.4,41.8,29.65,NNW,328,0.0,2.0,21,0.00,,,0.00,WeatherCatV1.14B232,2013-07-04 20:16:00,
2013-07-04 14:21:00,86.5,40.6,29.65,NNW,337,1.0,5.0,20,0.00,,,0.00,WeatherCatV1.14B232,2013-07-04 20:21:00,
2013-07-04 14:26:00,85.6,41.2,29.64,NNE,15,1.0,2.0,21,0.00,,,0.00,WeatherCatV1.14B232,2013-07-04 20:26:00,
2013-07-04 14:31:00,85.1,40.7,29.65,WNW,300,2.0,2.0,21,0.00,,,0.00,WeatherCatV1.14B232,2013-07-04 20:31:00,
2013-07-04 14:36:00,84.9,42.9,29.65,North,357,7.0,7.0,23,0.00,,,0.00,WeatherCatV1.14B232,2013-07-04 20:36:00,
2013-07-04 14:41:00,84.5,43.7,29.64,NW,326,5.0,7.0,24,0.00,,,0.00,WeatherCatV1.14B232,2013-07-04 20:41:00,
2013-07-04 14:46:00,84.3,44.6,29.64,NNW,339,2.0,8.0,25,0.00,,,0.00,WeatherCatV1.14B232,2013-07-04 20:46:00,
2013-07-04 14:51:00,84.2,44.5,29.64,NW,323,6.0,8.0,25,0.00,,,0.00,WeatherCatV1.14B232,2013-07-04 20:51:00,
2013-07-04 14:56:00,83.9,45.3,29.64,North,359,4.0,6.0,26,0.00,,,0.00,WeatherCatV1.14B232,2013-07-04 20:56:00,
2013-07-04 15:01:00,83.9,44.3,29.64,NNW,343,3.0,6.0,25,0.00,,,0.00,WeatherCatV1.14B232,2013-07-04 21:01:00,
2013-07-04 15:06:00,83.9,44.3,29.63,NNE,12,1.0,5.0,25,0.00,,,0.00,WeatherCatV1.14B232,2013-07-04 21:06:00,
2013-07-04 15:11:00,83.8,44.2,29.63,North,357,6.0,6.0,25,0.00,,,0.00,WeatherCatV1.14B232,2013-07-04 21:11:00,
2013-07-04 15:16:00,83.7,44.1,29.63,NNE,21,2.0,6.0,25,0.00,,,0.00,WeatherCatV1.14B232,2013-07-04 21:16:00,
2013-07-04 15:21:00,83.9,43.2,29.63,NNW,333,2.0,2.0,24,0.00,,,0.00,WeatherCatV1.14B232,2013-07-04 21:21:00,
2013-07-04 15:26:00,84.0,44.4,29.63,NNW,330,1.0,2.0,25,0.00,,,0.00,WeatherCatV1.14B232,2013-07-04 21:26:00,
2013-07-04 15:31:00,84.0,44.4,29.62,NNW,348,4.0,4.0,25,0.00,,,0.00,WeatherCatV1.14B232,2013-07-04 21:31:00,
2013-07-04 15:36:00,83.6,41.9,29.62,North,1,2.0,4.0,23,0.00,,,0.00,WeatherCatV1.14B232,2013-07-04 21:36:00,
2013-07-04 15:41:00,83.4,43.9,29.62,NNW,344,3.0,3.0,25,0.00,,,0.00,WeatherCatV1.14B232,2013-07-04 21:41:00,
2013-07-04 15:46:00,83.2,42.6,29.62,North,1,1.0,3.0,24,0.00,,,0.00,WeatherCatV1.14B232,2013-07-04 21:46:00,
2013-07-04 15:51:00,83.2,43.7,29.62,NNW,334,1.0,2.0,25,0.00,,,0.00,WeatherCatV1.14B232,2013-07-04 21:51:00,
2013-07-04 15:56:00,83.4,44.9,29.62,NW,314,0.0,3.0,26,0.00,,,0.00,WeatherCatV1.14B232,2013-07-04 21:56:00,
2013-07-04 16:01:00,83.6,45.1,29.61,WNW,300,1.0,2.0,26,0.00,,,0.00,WeatherCatV1.14B232,2013-07-04 22:01:00,
2013-07-04 16:06:00,83.8,45.2,29.61,WNW,295,0.0,1.0,26,0.00,,,0.00,WeatherCatV1.14B232,2013-07-04 22:06:00,
2013-07-04 16:11:00,84.2,45.6,29.61,NW,316,3.0,4.0,26,0.00,,,0.00,WeatherCatV1.14B232,2013-07-04 22:11:00,
2013-07-04 16:16:00,84.3,44.6,29.61,NW,315,1.0,8.0,25,0.00,,,0.00,WeatherCatV1.14B232,2013-07-04 22:16:00,
2013-07-04 16:21:00,84.7,42.8,29.61,NW,326,2.0,3.0,23,0.00,,,0.00,WeatherCatV1.14B232,2013-07-04 22:21:00,
2013-07-04 16:26:00,85.3,44.4,29.61,NNW,338,2.0,5.0,24,0.00,,,0.00,WeatherCatV1.14B232,2013-07-04 22:26:00,
2013-07-04 16:31:00,85.6,43.5,29.60,NW,310,1.0,2.0,23,0.00,,,0.00,WeatherCatV1.14B232,2013-07-04 22:31:00,
2013-07-04 16:36:00,85.5,43.4,29.60,WNW,301,2.0,4.0,23,0.00,,,0.00,WeatherCatV1.14B232,2013-07-04 22:36:00,
2013-07-04 16:41:00,85.0,46.2,29.60,NW,305,0.0,1.0,26,0.00,,,0.00,WeatherCatV1.14B232,2013-07-04 22:41:00,
2013-07-04 16:46:00,84.7,47.0,29.59,North,349,0.0,1.0,27,0.00,,,0.00,WeatherCatV1.14B232,2013-07-04 22:46:00,
2013-07-04 16:51:00,84.5,44.8,29.59,WNW,290,0.0,2.0,25,0.00,,,0.00,WeatherCatV1.14B232,2013-07-04 22:51:00,
2013-07-04 16:56:00,84.1,46.5,29.59,NNW,339,0.0,1.0,27,0.00,,,0.00,WeatherCatV1.14B232,2013-07-04 22:56:00,
2013-07-04 17:01:00,83.8,49.0,29.59,NNW,338,0.0,0.0,30,0.00,,,0.00,WeatherCatV1.14B232,2013-07-04 23:01:00,
2013-07-04 17:06:00,83.5,46.9,29.59,NNW,338,0.0,0.0,28,0.00,,,0.00,WeatherCatV1.14B232,2013-07-04 23:06:00,
2013-07-04 17:11:00,83.4,48.7,29.59,NNW,335,0.0,0.0,30,0.00,,,0.00,WeatherCatV1.14B232,2013-07-04 23:11:00,
2013-07-04 17:16:00,82.8,48.2,29.58,WNW,295,0.0,1.0,30,0.00,,,0.00,WeatherCatV1.14B232,2013-07-04 23:16:00,
2013-07-04 17:21:00,82.6,45.2,29.58,WNW,300,0.0,1.0,27,0.00,,,0.00,WeatherCatV1.14B232,2013-07-04 23:21:00,
2013-07-04 17:26:00,83.0,45.5,29.58,NNW,332,3.0,4.0,27,0.00,,,0.00,WeatherCatV1.14B232,2013-07-04 23:26:00,
2013-07-04 17:31:00,83.4,45.9,29.58,NW,311,1.0,2.0,27,0.00,,,0.00,WeatherCatV1.14B232,2013-07-04 23:31:00,
2013-07-04 17:36:00,83.9,46.3,29.58,NE,49,3.0,5.0,27,0.00,,,0.00,WeatherCatV1.14B232,2013-07-04 23:36:00,
2013-07-04 17:41:00,84.2,45.6,29.58,East,82,1.0,3.0,26,0.00,,,0.00,WeatherCatV1.14B232,2013-07-04 23:41:00,
2013-07-04 17:46:00,84.7,43.9,29.58,ENE,78,1.0,2.0,24,0.00,,,0.00,WeatherCatV1.14B232,2013-07-04 23:46:00,
2013-07-04 17:51:00,85.0,47.2,29.58,NE,47,2.0,3.0,27,0.00,,,0.00,WeatherCatV1.14B232,2013-07-04 23:51:00,
2013-07-04 17:56:00,85.0,44.1,29.58,ESE,103,1.0,3.0,24,0.00,,,0.00,WeatherCatV1.14B232,2013-07-04 23:56:00,
2013-07-04 18:01:00,85.2,46.4,29.58,East,96,1.0,2.0,26,0.00,,,0.00,WeatherCatV1.14B232,2013-07-05 00:01:00,
2013-07-04 18:06:00,85.5,45.6,29.57,SSE,156,0.0,3.0,25,0.00,,,0.00,WeatherCatV1.14B232,2013-07-05 00:06:00,
2013-07-04 18:11:00,85.8,45.9,29.57,NNW,341,1.0,3.0,25,0.00,,,0.00,WeatherCatV1.14B232,2013-07-05 00:11:00,
2013-07-04 18:16:00,85.7,44.7,29.57,East,95,1.0,2.0,24,0.00,,,0.00,WeatherCatV1.14B232,2013-07-05 00:16:00,
2013-07-04 18:21:00,85.0,43.0,29.57,East,89,2.0,5.0,23,0.00,,,0.00,WeatherCatV1.14B232,2013-07-05 00:21:00,
2013-07-04 18:26:00,84.7,45.0,29.57,NW,316,0.0,4.0,25,0.00,,,0.00,WeatherCatV1.14B232,2013-07-05 00:26:00,
2013-07-04 18:31:00,84.7,45.0,29.57,ESE,113,2.0,6.0,25,0.00,,,0.00,WeatherCatV1.14B232,2013-07-05 00:31:00,
2013-07-04 18:36:00,84.5,45.8,29.57,SSE,156,0.0,2.0,26,0.00,,,0.00,WeatherCatV1.14B232,2013-07-05 00:36:00,
2013-07-04 18:41:00,84.3,44.6,29.57,North,11,0.0,2.0,25,0.00,,,0.00,WeatherCatV1.14B232,2013-07-05 00:41:00,
2013-07-04 18:46:00,84.1,44.5,29.57,ESE,106,3.0,4.0,25,0.00,,,0.00,WeatherCatV1.14B232,2013-07-05 00:46:00,
2013-07-04 18:51:00,83.9,45.3,29.57,East,87,1.0,2.0,26,0.00,,,0.00,WeatherCatV1.14B232,2013-07-05 00:51:00,
2013-07-04 18:56:00,84.0,46.4,29.57,SSE,152,0.0,0.0,27,0.00,,,0.00,WeatherCatV1.14B232,2013-07-05 00:56:00,
2013-07-04 19:01:00,83.7,45.1,29.57,ESE,109,0.0,1.0,26,0.00,,,0.00,WeatherCatV1.14B232,2013-07-05 01:01:00,
2013-07-04 19:06:00,83.6,46.1,29.57,SW,215,0.0,1.0,27,0.00,,,0.00,WeatherCatV1.14B232,2013-07-05 01:06:00,
2013-07-04 19:11:00,83.5,46.0,29.57,SSE,162,0.0,2.0,27,0.00,,,0.00,WeatherCatV1.14B232,2013-07-05 01:11:00,
2013-07-04 19:16:00,83.7,45.1,29.57,ESE,104,0.0,0.0,26,0.00,,,0.00,WeatherCatV1.14B232,2013-07-05 01:16:00,
2013-07-04 19:21:00,83.7,45.1,29.57,SW,226,0.0,2.0,26,0.00,,,0.00,WeatherCatV1.14B232,2013-07-05 01:21:00,
2013-07-04 19:26:00,83.4,44.9,29.57,East,79,0.0,0.0,26,0.00,,,0.00,WeatherCatV1.14B232,2013-07-05 01:26:00,
2013-07-04 19:31:00,82.9,45.5,29.57,North,350,0.0,0.0,27,0.00,,,0.00,WeatherCatV1.14B232,2013-07-05 01:31:00,
2013-07-04 19:36:00,82.3,45.9,29.58,ESE,109,0.0,0.0,28,0.00,,,0.00,WeatherCatV1.14B232,2013-07-05 01:36:00,
2013-07-04 19:41:00,81.8,47.3,29.58,ESE,109,0.0,0.0,30,0.00,,,0.00,WeatherCatV1.14B232,2013-07-05 01:41:00,
2013-07-04 19:46:00,81.1,47.6,29.58,ESE,109,0.0,0.0,31,0.00,,,0.00,WeatherCatV1.14B232,2013-07-05 01:46:00,
2013-07-04 19:51:00,80.5,47.1,29.58,ESE,109,0.0,0.0,31,0.00,,,0.00,WeatherCatV1.14B232,2013-07-05 01:51:00,
2013-07-04 19:56:00,80.0,46.6,29.58,ESE,109,0.0,0.0,31,0.00,,,0.00,WeatherCatV1.14B232,2013-07-05 01:56:00,
2013-07-04 20:01:00,79.6,47.9,29.58,North,11,0.0,1.0,33,0.00,,,0.00,WeatherCatV1.14B232,2013-07-05 02:01:00,
2013-07-04 20:06:00,79.2,47.6,29.58,North,8,0.0,0.0,33,0.00,,,0.00,WeatherCatV1.14B232,2013-07-05 02:06:00,
2013-07-04 20:11:00,78.7,47.2,29.58,North,9,0.0,0.0,33,0.00,,,0.00,WeatherCatV1.14B232,2013-07-05 02:11:00,
2013-07-04 20:16:00,78.3,47.6,29.58,North,9,0.0,0.0,34,0.00,,,0.00,WeatherCatV1.14B232,2013-07-05 02:16:00,
2013-07-04 20:21:00,77.6,48.5,29.58,North,8,0.0,0.0,36,0.00,,,0.00,WeatherCatV1.14B232,2013-07-05 02:21:00,
2013-07-04 20:28:00,76.6,49.1,29.58,SSE,154,0.0,1.0,38,0.00,,,0.00,WeatherCatV1.14B232,2013-07-05 02:28:00,
2013-07-04 20:33:00,75.9,49.8,29.58,SSE,165,1.0,2.0,40,0.00,,,0.00,WeatherCatV1.14B232,2013-07-05 02:33:00,
2013-07-04 20:38:00,75.0,51.0,29.58,SW,217,1.0,3.0,43,0.00,,,0.00,WeatherCatV1.14B232,2013-07-05 02:38:00,
2013-07-04 20:43:00,74.3,51.0,29.58,SSW,200,1.0,2.0,44,0.00,,,0.00,WeatherCatV1.14B232,2013-07-05 02:43:00,
2013-07-04 20:48:00,73.5,50.8,29.59,SSW,193,1.0,2.0,45,0.00,,,0.00,WeatherCatV1.14B232,2013-07-05 02:48:00,
2013-07-04 20:53:00,72.9,51.5,29.59,South,188,2.0,2.0,47,0.00,,,0.00,WeatherCatV1.14B232,2013-07-05 02:53:00,
2013-07-04 20:58:00,72.4,51.0,29.59,South,172,2.0,3.0,47,0.00,,,0.00,WeatherCatV1.14B232,2013-07-05 02:58:00,
2013-07-04 21:03:00,72.3,51.5,29.59,South,184,0.0,2.0,48,0.00,,,0.00,WeatherCatV1.14B232,2013-07-05 03:03:00,
2013-07-04 21:08:00,71.8,51.0,29.59,SW,228,0.0,1.0,48,0.00,,,0.00,WeatherCatV1.14B232,2013-07-05 03:08:00,
2013-07-04 21:13:00,71.4,50.7,29.59,SSW,211,1.0,2.0,48,0.00,,,0.00,WeatherCatV1.14B232,2013-07-05 03:13:00,
2013-07-04 21:18:00,71.2,48.2,29.59,SSW,203,2.0,3.0,44,0.00,,,0.00,WeatherCatV1.14B232,2013-07-05 03:18:00,
2013-07-04 21:23:00,71.4,50.1,29.59,South,184,0.0,0.0,47,0.00,,,0.00,WeatherCatV1.14B232,2013-07-05 03:23:00,
2013-07-04 21:28:00,71.0,50.3,29.59,South,184,0.0,0.0,48,0.00,,,0.00,WeatherCatV1.14B232,2013-07-05 03:28:00,
2013-07-04 21:33:00,70.5,49.3,29.59,West,280,0.0,0.0,47,0.00,,,0.00,WeatherCatV1.14B232,2013-07-05 03:33:00,
2013-07-04 21:38:00,70.3,48.5,29.60,South,170,1.0,1.0,46,0.00,,,0.00,WeatherCatV1.14B232,2013-07-05 03:38:00,
2013-07-04 21:43:00,70.2,47.9,29.59,SSW,208,1.0,1.0,45,0.00,,,0.00,WeatherCatV1.14B232,2013-07-05 03:43:00,
2013-07-04 21:48:00,69.8,48.6,29.59,South,172,0.0,1.0,47,0.00,,,0.00,WeatherCatV1.14B232,2013-07-05 03:48:00,
2013-07-04 21:53:00,69.4,48.8,29.59,SSW,201,0.0,0.0,48,0.00,,,0.00,WeatherCatV1.14B232,2013-07-05 03:53:00,
2013-07-04 21:58:00,68.7,49.8,29.60,SSW,201,0.0,0.0,51,0.00,,,0.00,WeatherCatV1.14B232,2013-07-05 03:58:00,
2013-07-04 22:01:00,68.3,49.5,29.60,SSW,201,0.0,0.0,51,0.00,,,0.00,WeatherCatV1.14B232,2013-07-05 04:01:00,
2013-07-04 22:06:00,67.7,50.9,29.60,SSW,203,0.0,0.0,55,0.00,,,0.00,WeatherCatV1.14B232,2013-07-05 04:06:00,
2013-07-04 22:11:00,66.9,50.7,29.60,SSW,203,0.0,0.0,56,0.00,,,0.00,WeatherCatV1.14B232,2013-07-05 04:11:00,
2013-07-04 22:16:00,66.2,50.5,29.60,SSW,211,2.0,2.0,57,0.00,,,0.00,WeatherCatV1.14B232,2013-07-05 04:16:00,
2013-07-04 22:21:00,65.8,49.2,29.60,SSE,159,0.0,0.0,55,0.00,,,0.00,WeatherCatV1.14B232,2013-07-05 04:21:00,
2013-07-04 22:26:00,65.6,50.4,29.60,SSE,159,0.0,0.0,58,0.00,,,0.00,WeatherCatV1.14B232,2013-07-05 04:26:00,
2013-07-04 22:31:00,65.1,48.5,29.60,SW,219,1.0,1.0,55,0.00,,,0.00,WeatherCatV1.14B232,2013-07-05 04:31:00,
2013-07-04 22:36:00,64.9,50.7,29.60,SW,221,0.0,0.0,60,0.00,,,0.00,WeatherCatV1.14B232,2013-07-05 04:36:00,
2013-07-04 22:41:00,64.4,50.2,29.60,SW,221,0.0,0.0,60,0.00,,,0.00,WeatherCatV1.14B232,2013-07-05 04:41:00,
2013-07-04 22:46:00,64.0,50.3,29.60,SW,221,0.0,0.0,61,0.00,,,0.00,WeatherCatV1.14B232,2013-07-05 04:46:00,
2013-07-04 22:51:00,63.6,49.9,29.61,SW,221,0.0,0.0,61,0.00,,,0.00,WeatherCatV1.14B232,2013-07-05 04:51:00,
2013-07-04 22:56:00,63.2,48.2,29.61,SSE,152,0.0,0.0,58,0.00,,,0.00,WeatherCatV1.14B232,2013-07-05 04:56:00,
2013-07-04 23:01:00,63.0,48.9,29.61,SSE,152,0.0,0.0,60,0.00,,,0.00,WeatherCatV1.14B232,2013-07-05 05:01:00,
2013-07-04 23:06:00,62.9,48.8,29.61,NE,49,0.0,1.0,60,0.00,,,0.00,WeatherCatV1.14B232,2013-07-05 05:06:00,
2013-07-04 23:11:00,63.3,47.8,29.61,NNE,13,0.0,0.0,57,0.00,,,0.00,WeatherCatV1.14B232,2013-07-05 05:11:00,
2013-07-04 23:16:00,63.4,49.7,29.61,NNE,13,0.0,0.0,61,0.00,,,0.00,WeatherCatV1.14B232,2013-07-05 05:16:00,
2013-07-04 23:21:00,63.4,48.8,29.61,NNE,14,0.0,1.0,59,0.00,,,0.00,WeatherCatV1.14B232,2013-07-05 05:21:00,
2013-07-04 23:26:00,63.5,48.9,29.61,NNE,13,0.0,0.0,59,0.00,,,0.00,WeatherCatV1.14B232,2013-07-05 05:26:00,
2013-07-04 23:31:00,63.5,49.4,29.61,NNE,14,0.0,0.0,60,0.00,,,0.00,WeatherCatV1.14B232,2013-07-05 05:31:00,
2013-07-04 23:36:00,63.5,48.0,29.61,SW,226,1.0,2.0,57,0.00,,,0.00,WeatherCatV1.14B232,2013-07-05 05:36:00,
2013-07-04 23:41:00,63.4,48.4,29.61,SW,227,0.0,0.0,58,0.00,,,0.00,WeatherCatV1.14B232,2013-07-05 05:41:00,
2013-07-04 23:46:00,63.6,47.6,29.61,SW,226,0.0,1.0,56,0.00,,,0.00,WeatherCatV1.14B232,2013-07-05 05:46:00,
2013-07-04 23:51:00,64.1,47.1,29.61,SW,224,0.0,0.0,54,0.00,,,0.00,WeatherCatV1.14B232,2013-07-05 05:51:00,
2013-07-04 23:56:00,64.2,47.7,29.61,SW,224,0.0,0.0,55,0.00,,,0.00,WeatherCatV1.14B232,2013-07-05 05:56:00,